sensor_id;sensor_type;location;lat;lon;timestamp;temperature;humidity
12015;DHT22;6066;48.138;16.402;2022-10-28T00:01:02;11.50;99.90
12015;DHT22;6066;48.138;16.402;2022-10-28T00:03:29;11.50;99.90
12015;DHT22;6066;48.138;16.402;2022-10-28T00:05:59;11.50;99.90
12015;DHT22;6066;48.138;16.402;2022-10-28T00:08:26;11.50;99.90
12015;DHT22;6066;48.138;16.402;2022-10-28T00:11:01;11.50;99.90
12015;DHT22;6066;48.138;16.402;2022-10-28T00:13:27;11.50;99.90
12015;DHT22;6066;48.138;16.402;2022-10-28T00:15:54;11.40;99.90
12015;DHT22;6066;48.138;16.402;2022-10-28T00:18:21;11.40;99.90
12015;DHT22;6066;48.138;16.402;2022-10-28T00:20:47;11.40;99.90
12015;DHT22;6066;48.138;16.402;2022-10-28T00:23:14;11.30;99.90
12015;DHT22;6066;48.138;16.402;2022-10-28T00:25:41;11.30;99.90
12015;DHT22;6066;48.138;16.402;2022-10-28T00:28:09;11.30;99.90
12015;DHT22;6066;48.138;16.402;2022-10-28T00:30:35;11.30;99.90
12015;DHT22;6066;48.138;16.402;2022-10-28T00:33:02;11.30;99.90
12015;DHT22;6066;48.138;16.402;2022-10-28T00:35:30;11.30;99.90
12015;DHT22;6066;48.138;16.402;2022-10-28T00:37:58;11.20;99.90
12015;DHT22;6066;48.138;16.402;2022-10-28T00:40:24;11.20;99.90
12015;DHT22;6066;48.138;16.402;2022-10-28T00:42:51;11.20;99.90
12015;DHT22;6066;48.138;16.402;2022-10-28T00:45:19;11.20;99.90
12015;DHT22;6066;48.138;16.402;2022-10-28T00:47:46;11.20;99.90
12015;DHT22;6066;48.138;16.402;2022-10-28T00:53:08;11.20;99.90
12015;DHT22;6066;48.138;16.402;2022-10-28T00:55:35;11.20;99.90
12015;DHT22;6066;48.138;16.402;2022-10-28T00:58:02;11.20;99.90
12015;DHT22;6066;48.138;16.402;2022-10-28T01:00:31;11.20;99.90
12015;DHT22;6066;48.138;16.402;2022-10-28T01:02:58;11.20;99.90
12015;DHT22;6066;48.138;16.402;2022-10-28T01:05:27;11.20;99.90
12015;DHT22;6066;48.138;16.402;2022-10-28T01:07:56;11.20;99.90
12015;DHT22;6066;48.138;16.402;2022-10-28T01:10:25;11.20;99.90
12015;DHT22;6066;48.138;16.402;2022-10-28T01:12:57;11.20;99.90
12015;DHT22;6066;48.138;16.402;2022-10-28T01:15:30;11.20;99.90
12015;DHT22;6066;48.138;16.402;2022-10-28T01:18:01;11.20;99.90
12015;DHT22;6066;48.138;16.402;2022-10-28T01:20:43;11.20;99.90
12015;DHT22;6066;48.138;16.402;2022-10-28T01:23:15;11.20;99.90
12015;DHT22;6066;48.138;16.402;2022-10-28T01:28:29;11.20;99.90
12015;DHT22;6066;48.138;16.402;2022-10-28T01:31:17;11.30;99.90
12015;DHT22;6066;48.138;16.402;2022-10-28T01:33:46;11.20;99.90
12015;DHT22;6066;48.138;16.402;2022-10-28T01:36:17;11.30;99.90
12015;DHT22;6066;48.138;16.402;2022-10-28T01:38:47;11.30;99.90
12015;DHT22;6066;48.138;16.402;2022-10-28T01:41:16;11.30;99.90
12015;DHT22;6066;48.138;16.402;2022-10-28T01:43:44;11.30;99.90
12015;DHT22;6066;48.138;16.402;2022-10-28T01:46:13;11.30;99.90
12015;DHT22;6066;48.138;16.402;2022-10-28T01:48:43;11.30;99.90
12015;DHT22;6066;48.138;16.402;2022-10-28T01:51:10;11.30;99.90
12015;DHT22;6066;48.138;16.402;2022-10-28T01:53:40;11.30;99.90
12015;DHT22;6066;48.138;16.402;2022-10-28T01:56:10;11.30;99.90
12015;DHT22;6066;48.138;16.402;2022-10-28T01:58:39;11.30;99.90
12015;DHT22;6066;48.138;16.402;2022-10-28T02:01:07;11.30;99.90
12015;DHT22;6066;48.138;16.402;2022-10-28T02:03:34;11.30;99.90
12015;DHT22;6066;48.138;16.402;2022-10-28T02:06:02;11.30;99.90
12015;DHT22;6066;48.138;16.402;2022-10-28T02:08:33;11.30;99.90
12015;DHT22;6066;48.138;16.402;2022-10-28T02:11:03;11.20;99.90
12015;DHT22;6066;48.138;16.402;2022-10-28T02:13:36;11.20;99.90
12015;DHT22;6066;48.138;16.402;2022-10-28T02:16:06;11.20;99.90
12015;DHT22;6066;48.138;16.402;2022-10-28T02:18:35;11.20;99.90
12015;DHT22;6066;48.138;16.402;2022-10-28T02:21:09;11.30;99.90
12015;DHT22;6066;48.138;16.402;2022-10-28T02:23:40;11.30;99.90
12015;DHT22;6066;48.138;16.402;2022-10-28T02:26:10;11.30;99.90
12015;DHT22;6066;48.138;16.402;2022-10-28T02:28:40;11.30;99.90
12015;DHT22;6066;48.138;16.402;2022-10-28T02:31:10;11.30;99.90
12015;DHT22;6066;48.138;16.402;2022-10-28T02:33:38;11.30;99.90
12015;DHT22;6066;48.138;16.402;2022-10-28T02:36:06;11.30;99.90
12015;DHT22;6066;48.138;16.402;2022-10-28T02:38:36;11.30;99.90
12015;DHT22;6066;48.138;16.402;2022-10-28T02:41:05;11.30;99.90
12015;DHT22;6066;48.138;16.402;2022-10-28T02:43:32;11.30;99.90
12015;DHT22;6066;48.138;16.402;2022-10-28T02:46:00;11.30;99.90
12015;DHT22;6066;48.138;16.402;2022-10-28T02:48:29;11.30;99.90
12015;DHT22;6066;48.138;16.402;2022-10-28T02:50:59;11.30;99.90
12015;DHT22;6066;48.138;16.402;2022-10-28T02:53:28;11.30;99.90
12015;DHT22;6066;48.138;16.402;2022-10-28T02:55:57;11.30;99.90
12015;DHT22;6066;48.138;16.402;2022-10-28T02:58:24;11.30;99.90
12015;DHT22;6066;48.138;16.402;2022-10-28T03:00:51;11.30;99.90
12015;DHT22;6066;48.138;16.402;2022-10-28T03:03:18;11.30;99.90
12015;DHT22;6066;48.138;16.402;2022-10-28T03:05:45;11.30;99.90
12015;DHT22;6066;48.138;16.402;2022-10-28T03:08:11;11.30;99.90
12015;DHT22;6066;48.138;16.402;2022-10-28T03:10:38;11.30;99.90
12015;DHT22;6066;48.138;16.402;2022-10-28T03:13:06;11.30;99.90
12015;DHT22;6066;48.138;16.402;2022-10-28T03:15:33;11.30;99.90
12015;DHT22;6066;48.138;16.402;2022-10-28T03:17:59;11.30;99.90
12015;DHT22;6066;48.138;16.402;2022-10-28T03:20:26;11.30;99.90
12015;DHT22;6066;48.138;16.402;2022-10-28T03:22:52;11.30;99.90
12015;DHT22;6066;48.138;16.402;2022-10-28T03:25:19;11.40;99.90
12015;DHT22;6066;48.138;16.402;2022-10-28T03:27:46;11.40;99.90
12015;DHT22;6066;48.138;16.402;2022-10-28T03:30:14;11.40;99.90
12015;DHT22;6066;48.138;16.402;2022-10-28T03:32:42;11.40;99.90
12015;DHT22;6066;48.138;16.402;2022-10-28T03:35:09;11.40;99.90
12015;DHT22;6066;48.138;16.402;2022-10-28T03:37:36;11.40;99.90
12015;DHT22;6066;48.138;16.402;2022-10-28T03:40:02;11.40;99.90
12015;DHT22;6066;48.138;16.402;2022-10-28T03:42:32;11.40;99.90
12015;DHT22;6066;48.138;16.402;2022-10-28T03:44:58;11.40;99.90
12015;DHT22;6066;48.138;16.402;2022-10-28T03:47:26;11.40;99.90
12015;DHT22;6066;48.138;16.402;2022-10-28T03:49:53;11.40;99.90
12015;DHT22;6066;48.138;16.402;2022-10-28T03:52:20;11.40;99.90
12015;DHT22;6066;48.138;16.402;2022-10-28T03:54:46;11.40;99.90
12015;DHT22;6066;48.138;16.402;2022-10-28T03:57:13;11.40;99.90
12015;DHT22;6066;48.138;16.402;2022-10-28T03:59:40;11.40;99.90
12015;DHT22;6066;48.138;16.402;2022-10-28T04:02:06;11.40;99.90
12015;DHT22;6066;48.138;16.402;2022-10-28T04:04:34;11.40;99.90
12015;DHT22;6066;48.138;16.402;2022-10-28T04:07:01;11.40;99.90
12015;DHT22;6066;48.138;16.402;2022-10-28T04:09:28;11.40;99.90
12015;DHT22;6066;48.138;16.402;2022-10-28T04:11:54;11.40;99.90
12015;DHT22;6066;48.138;16.402;2022-10-28T04:14:21;11.40;99.90
12015;DHT22;6066;48.138;16.402;2022-10-28T04:16:48;11.40;99.90
12015;DHT22;6066;48.138;16.402;2022-10-28T04:19:14;11.40;99.90
12015;DHT22;6066;48.138;16.402;2022-10-28T04:21:42;11.40;99.90
12015;DHT22;6066;48.138;16.402;2022-10-28T04:24:09;11.40;99.90
12015;DHT22;6066;48.138;16.402;2022-10-28T04:26:36;11.40;99.90
12015;DHT22;6066;48.138;16.402;2022-10-28T04:29:02;11.40;99.90
12015;DHT22;6066;48.138;16.402;2022-10-28T04:31:29;11.40;99.90
12015;DHT22;6066;48.138;16.402;2022-10-28T04:33:56;11.40;99.90
12015;DHT22;6066;48.138;16.402;2022-10-28T04:36:22;11.40;99.90
12015;DHT22;6066;48.138;16.402;2022-10-28T04:38:51;11.30;99.90
12015;DHT22;6066;48.138;16.402;2022-10-28T04:41:17;11.30;99.90
12015;DHT22;6066;48.138;16.402;2022-10-28T04:43:44;11.30;99.90
12015;DHT22;6066;48.138;16.402;2022-10-28T04:46:10;11.30;99.90
12015;DHT22;6066;48.138;16.402;2022-10-28T04:48:37;11.30;99.90
12015;DHT22;6066;48.138;16.402;2022-10-28T04:51:04;11.30;99.90
12015;DHT22;6066;48.138;16.402;2022-10-28T04:53:31;11.30;99.90
12015;DHT22;6066;48.138;16.402;2022-10-28T04:55:59;11.20;99.90
12015;DHT22;6066;48.138;16.402;2022-10-28T04:58:25;11.20;99.90
12015;DHT22;6066;48.138;16.402;2022-10-28T05:00:52;11.20;99.90
12015;DHT22;6066;48.138;16.402;2022-10-28T05:03:19;11.20;99.90
12015;DHT22;6066;48.138;16.402;2022-10-28T05:05:46;11.20;99.90
12015;DHT22;6066;48.138;16.402;2022-10-28T05:08:12;11.20;99.90
12015;DHT22;6066;48.138;16.402;2022-10-28T05:10:39;11.20;99.90
12015;DHT22;6066;48.138;16.402;2022-10-28T05:13:07;11.30;99.90
12015;DHT22;6066;48.138;16.402;2022-10-28T05:15:34;11.30;99.90
12015;DHT22;6066;48.138;16.402;2022-10-28T05:18:00;11.30;99.90
12015;DHT22;6066;48.138;16.402;2022-10-28T05:20:27;11.30;99.90
12015;DHT22;6066;48.138;16.402;2022-10-28T05:22:54;11.30;99.90
12015;DHT22;6066;48.138;16.402;2022-10-28T05:25:21;11.30;99.90
12015;DHT22;6066;48.138;16.402;2022-10-28T05:27:48;11.30;99.90
12015;DHT22;6066;48.138;16.402;2022-10-28T05:30:16;11.30;99.90
12015;DHT22;6066;48.138;16.402;2022-10-28T05:32:43;11.30;99.90
12015;DHT22;6066;48.138;16.402;2022-10-28T05:35:10;11.30;99.90
12015;DHT22;6066;48.138;16.402;2022-10-28T05:37:37;11.30;99.90
12015;DHT22;6066;48.138;16.402;2022-10-28T05:40:04;11.30;99.90
12015;DHT22;6066;48.138;16.402;2022-10-28T05:42:31;11.30;99.90
12015;DHT22;6066;48.138;16.402;2022-10-28T05:44:57;11.30;99.90
12015;DHT22;6066;48.138;16.402;2022-10-28T05:47:25;11.30;99.90
12015;DHT22;6066;48.138;16.402;2022-10-28T05:49:52;11.30;99.90
12015;DHT22;6066;48.138;16.402;2022-10-28T05:52:19;11.30;99.90
12015;DHT22;6066;48.138;16.402;2022-10-28T05:54:45;11.30;99.90
12015;DHT22;6066;48.138;16.402;2022-10-28T05:57:12;11.30;99.90
12015;DHT22;6066;48.138;16.402;2022-10-28T05:59:38;11.30;99.90
12015;DHT22;6066;48.138;16.402;2022-10-28T06:02:07;11.30;99.90
12015;DHT22;6066;48.138;16.402;2022-10-28T06:04:36;11.30;99.90
12015;DHT22;6066;48.138;16.402;2022-10-28T06:07:03;11.40;99.90
12015;DHT22;6066;48.138;16.402;2022-10-28T06:09:30;11.40;99.90
12015;DHT22;6066;48.138;16.402;2022-10-28T06:11:56;11.40;99.90
12015;DHT22;6066;48.138;16.402;2022-10-28T06:14:23;11.40;99.90
12015;DHT22;6066;48.138;16.402;2022-10-28T06:16:50;11.40;99.90
12015;DHT22;6066;48.138;16.402;2022-10-28T06:19:17;11.40;99.90
12015;DHT22;6066;48.138;16.402;2022-10-28T06:21:45;11.40;99.90
12015;DHT22;6066;48.138;16.402;2022-10-28T06:24:12;11.40;99.90
12015;DHT22;6066;48.138;16.402;2022-10-28T06:26:39;11.40;99.90
12015;DHT22;6066;48.138;16.402;2022-10-28T06:29:05;11.40;99.90
12015;DHT22;6066;48.138;16.402;2022-10-28T06:31:32;11.50;99.90
12015;DHT22;6066;48.138;16.402;2022-10-28T06:33:59;11.40;99.90
12015;DHT22;6066;48.138;16.402;2022-10-28T06:36:25;11.40;99.90
12015;DHT22;6066;48.138;16.402;2022-10-28T06:38:55;11.40;99.90
12015;DHT22;6066;48.138;16.402;2022-10-28T06:41:21;11.50;99.90
12015;DHT22;6066;48.138;16.402;2022-10-28T06:43:48;11.50;99.90
12015;DHT22;6066;48.138;16.402;2022-10-28T06:46:15;11.50;99.90
12015;DHT22;6066;48.138;16.402;2022-10-28T06:48:41;11.50;99.90
12015;DHT22;6066;48.138;16.402;2022-10-28T06:51:08;11.50;99.90
12015;DHT22;6066;48.138;16.402;2022-10-28T06:53:35;11.50;99.90
12015;DHT22;6066;48.138;16.402;2022-10-28T06:56:03;11.50;99.90
12015;DHT22;6066;48.138;16.402;2022-10-28T06:58:30;11.50;99.90
12015;DHT22;6066;48.138;16.402;2022-10-28T07:00:56;11.60;99.90
12015;DHT22;6066;48.138;16.402;2022-10-28T07:03:27;11.60;99.90
12015;DHT22;6066;48.138;16.402;2022-10-28T07:05:54;11.50;99.90
12015;DHT22;6066;48.138;16.402;2022-10-28T07:08:21;11.50;99.90
12015;DHT22;6066;48.138;16.402;2022-10-28T07:10:52;11.50;99.90
12015;DHT22;6066;48.138;16.402;2022-10-28T07:13:20;11.50;99.90
12015;DHT22;6066;48.138;16.402;2022-10-28T07:15:49;11.50;99.90
12015;DHT22;6066;48.138;16.402;2022-10-28T07:18:16;11.50;99.90
12015;DHT22;6066;48.138;16.402;2022-10-28T07:20:43;11.50;99.90
12015;DHT22;6066;48.138;16.402;2022-10-28T07:23:10;11.40;99.90
12015;DHT22;6066;48.138;16.402;2022-10-28T07:25:36;11.50;99.90
12015;DHT22;6066;48.138;16.402;2022-10-28T07:28:04;11.50;99.90
12015;DHT22;6066;48.138;16.402;2022-10-28T07:30:33;11.50;99.90
12015;DHT22;6066;48.138;16.402;2022-10-28T07:32:59;11.50;99.90
12015;DHT22;6066;48.138;16.402;2022-10-28T07:35:28;11.50;99.90
12015;DHT22;6066;48.138;16.402;2022-10-28T07:37:55;11.50;99.90
12015;DHT22;6066;48.138;16.402;2022-10-28T07:40:23;11.60;99.90
12015;DHT22;6066;48.138;16.402;2022-10-28T07:42:49;11.60;99.90
12015;DHT22;6066;48.138;16.402;2022-10-28T07:45:18;11.60;99.90
12015;DHT22;6066;48.138;16.402;2022-10-28T07:47:46;11.60;99.90
12015;DHT22;6066;48.138;16.402;2022-10-28T07:50:13;11.60;99.90
12015;DHT22;6066;48.138;16.402;2022-10-28T07:52:39;11.60;99.90
12015;DHT22;6066;48.138;16.402;2022-10-28T07:55:08;11.60;99.90
12015;DHT22;6066;48.138;16.402;2022-10-28T07:57:35;11.60;99.90
12015;DHT22;6066;48.138;16.402;2022-10-28T08:00:03;11.60;99.90
12015;DHT22;6066;48.138;16.402;2022-10-28T08:02:31;11.60;99.90
12015;DHT22;6066;48.138;16.402;2022-10-28T08:04:59;11.60;99.90
12015;DHT22;6066;48.138;16.402;2022-10-28T08:07:26;11.60;99.90
12015;DHT22;6066;48.138;16.402;2022-10-28T08:09:53;11.60;99.90
12015;DHT22;6066;48.138;16.402;2022-10-28T08:12:20;11.70;99.90
12015;DHT22;6066;48.138;16.402;2022-10-28T08:14:46;11.60;99.90
12015;DHT22;6066;48.138;16.402;2022-10-28T08:17:13;11.70;99.90
12015;DHT22;6066;48.138;16.402;2022-10-28T08:19:40;11.70;99.90
12015;DHT22;6066;48.138;16.402;2022-10-28T08:22:08;11.70;99.90
12015;DHT22;6066;48.138;16.402;2022-10-28T08:24:36;11.70;99.90
12015;DHT22;6066;48.138;16.402;2022-10-28T08:27:03;11.80;99.90
12015;DHT22;6066;48.138;16.402;2022-10-28T08:29:30;11.80;99.90
12015;DHT22;6066;48.138;16.402;2022-10-28T08:31:57;11.90;99.90
12015;DHT22;6066;48.138;16.402;2022-10-28T08:34:23;11.90;99.90
12015;DHT22;6066;48.138;16.402;2022-10-28T08:36:53;11.90;99.90
12015;DHT22;6066;48.138;16.402;2022-10-28T08:39:21;11.90;99.90
12015;DHT22;6066;48.138;16.402;2022-10-28T08:41:49;11.90;99.90
12015;DHT22;6066;48.138;16.402;2022-10-28T08:44:31;11.90;99.90
12015;DHT22;6066;48.138;16.402;2022-10-28T08:47:04;11.90;99.90
12015;DHT22;6066;48.138;16.402;2022-10-28T08:49:35;11.90;99.90
12015;DHT22;6066;48.138;16.402;2022-10-28T08:52:04;11.90;99.90
12015;DHT22;6066;48.138;16.402;2022-10-28T08:54:36;11.90;99.90
12015;DHT22;6066;48.138;16.402;2022-10-28T08:57:05;11.90;99.90
12015;DHT22;6066;48.138;16.402;2022-10-28T08:59:36;12.00;99.90
12015;DHT22;6066;48.138;16.402;2022-10-28T09:02:10;12.00;99.90
12015;DHT22;6066;48.138;16.402;2022-10-28T09:04:40;12.00;99.90
12015;DHT22;6066;48.138;16.402;2022-10-28T09:07:08;12.00;99.90
12015;DHT22;6066;48.138;16.402;2022-10-28T09:09:38;12.00;99.90
12015;DHT22;6066;48.138;16.402;2022-10-28T09:12:10;12.00;99.90
12015;DHT22;6066;48.138;16.402;2022-10-28T09:14:47;12.00;99.90
12015;DHT22;6066;48.138;16.402;2022-10-28T09:17:22;12.00;99.90
12015;DHT22;6066;48.138;16.402;2022-10-28T09:19:55;12.00;99.90
12015;DHT22;6066;48.138;16.402;2022-10-28T09:22:24;11.90;99.90
12015;DHT22;6066;48.138;16.402;2022-10-28T09:24:54;12.00;99.90
12015;DHT22;6066;48.138;16.402;2022-10-28T09:27:25;12.00;99.90
12015;DHT22;6066;48.138;16.402;2022-10-28T09:29:57;12.00;99.90
12015;DHT22;6066;48.138;16.402;2022-10-28T09:32:28;12.00;99.90
12015;DHT22;6066;48.138;16.402;2022-10-28T09:34:59;12.00;99.90
12015;DHT22;6066;48.138;16.402;2022-10-28T09:37:27;12.00;99.90
12015;DHT22;6066;48.138;16.402;2022-10-28T09:39:59;12.00;99.90
12015;DHT22;6066;48.138;16.402;2022-10-28T09:42:26;12.10;99.90
12015;DHT22;6066;48.138;16.402;2022-10-28T09:44:55;12.10;99.90
12015;DHT22;6066;48.138;16.402;2022-10-28T09:47:24;12.10;99.90
12015;DHT22;6066;48.138;16.402;2022-10-28T09:49:53;12.10;99.90
12015;DHT22;6066;48.138;16.402;2022-10-28T09:52:21;12.20;99.90
12015;DHT22;6066;48.138;16.402;2022-10-28T09:54:49;12.20;99.90
12015;DHT22;6066;48.138;16.402;2022-10-28T09:57:18;12.20;99.90
12015;DHT22;6066;48.138;16.402;2022-10-28T09:59:45;12.30;99.90
12015;DHT22;6066;48.138;16.402;2022-10-28T10:02:22;12.40;99.90
12015;DHT22;6066;48.138;16.402;2022-10-28T10:04:50;12.40;99.90
12015;DHT22;6066;48.138;16.402;2022-10-28T10:07:21;12.50;99.90
12015;DHT22;6066;48.138;16.402;2022-10-28T10:09:51;12.50;99.90
12015;DHT22;6066;48.138;16.402;2022-10-28T10:12:19;12.50;99.90
12015;DHT22;6066;48.138;16.402;2022-10-28T10:14:46;12.60;99.90
12015;DHT22;6066;48.138;16.402;2022-10-28T10:17:14;12.50;99.90
12015;DHT22;6066;48.138;16.402;2022-10-28T10:19:58;12.50;99.90
12015;DHT22;6066;48.138;16.402;2022-10-28T10:22:29;12.50;99.90
12015;DHT22;6066;48.138;16.402;2022-10-28T10:24:56;12.50;99.90
12015;DHT22;6066;48.138;16.402;2022-10-28T10:27:24;12.60;99.90
12015;DHT22;6066;48.138;16.402;2022-10-28T10:29:51;12.60;99.90
12015;DHT22;6066;48.138;16.402;2022-10-28T10:32:18;12.50;99.90
12015;DHT22;6066;48.138;16.402;2022-10-28T10:34:48;12.60;99.90
12015;DHT22;6066;48.138;16.402;2022-10-28T10:37:17;12.50;99.90
12015;DHT22;6066;48.138;16.402;2022-10-28T10:39:49;12.50;99.90
12015;DHT22;6066;48.138;16.402;2022-10-28T10:42:25;12.50;99.90
12015;DHT22;6066;48.138;16.402;2022-10-28T10:44:55;12.50;99.90
12015;DHT22;6066;48.138;16.402;2022-10-28T10:47:24;12.50;99.90
12015;DHT22;6066;48.138;16.402;2022-10-28T10:49:51;12.50;99.90
12015;DHT22;6066;48.138;16.402;2022-10-28T10:52:19;12.60;99.90
12015;DHT22;6066;48.138;16.402;2022-10-28T10:54:56;12.60;99.90
12015;DHT22;6066;48.138;16.402;2022-10-28T10:57:23;12.60;99.90
12015;DHT22;6066;48.138;16.402;2022-10-28T10:59:52;12.60;99.90
12015;DHT22;6066;48.138;16.402;2022-10-28T11:02:20;12.60;99.90
12015;DHT22;6066;48.138;16.402;2022-10-28T11:04:48;12.60;99.90
12015;DHT22;6066;48.138;16.402;2022-10-28T11:07:16;12.60;99.90
12015;DHT22;6066;48.138;16.402;2022-10-28T11:09:43;12.70;99.90
12015;DHT22;6066;48.138;16.402;2022-10-28T11:12:13;12.70;99.90
12015;DHT22;6066;48.138;16.402;2022-10-28T11:14:42;12.70;99.90
12015;DHT22;6066;48.138;16.402;2022-10-28T11:17:22;12.70;99.90
12015;DHT22;6066;48.138;16.402;2022-10-28T11:19:51;12.70;99.90
12015;DHT22;6066;48.138;16.402;2022-10-28T11:22:20;12.60;99.90
12015;DHT22;6066;48.138;16.402;2022-10-28T11:24:59;12.60;99.90
12015;DHT22;6066;48.138;16.402;2022-10-28T11:27:32;12.60;99.90
12015;DHT22;6066;48.138;16.402;2022-10-28T11:30:00;12.60;99.90
12015;DHT22;6066;48.138;16.402;2022-10-28T11:32:31;12.70;99.90
12015;DHT22;6066;48.138;16.402;2022-10-28T11:35:09;12.70;99.90
12015;DHT22;6066;48.138;16.402;2022-10-28T11:37:46;12.70;99.90
12015;DHT22;6066;48.138;16.402;2022-10-28T11:40:20;12.80;99.90
12015;DHT22;6066;48.138;16.402;2022-10-28T11:42:52;12.80;99.90
12015;DHT22;6066;48.138;16.402;2022-10-28T11:45:25;12.80;99.90
12015;DHT22;6066;48.138;16.402;2022-10-28T11:48:00;12.80;99.90
12015;DHT22;6066;48.138;16.402;2022-10-28T11:50:37;12.80;99.90
12015;DHT22;6066;48.138;16.402;2022-10-28T11:53:17;12.80;99.90
12015;DHT22;6066;48.138;16.402;2022-10-28T11:55:49;12.80;99.90
12015;DHT22;6066;48.138;16.402;2022-10-28T11:58:22;12.80;99.90
12015;DHT22;6066;48.138;16.402;2022-10-28T12:00:55;12.70;99.90
12015;DHT22;6066;48.138;16.402;2022-10-28T12:03:34;12.70;99.90
12015;DHT22;6066;48.138;16.402;2022-10-28T12:06:08;12.60;99.90
12015;DHT22;6066;48.138;16.402;2022-10-28T12:08:40;12.60;99.90
12015;DHT22;6066;48.138;16.402;2022-10-28T12:11:16;12.60;99.90
12015;DHT22;6066;48.138;16.402;2022-10-28T12:13:47;12.60;99.90
12015;DHT22;6066;48.138;16.402;2022-10-28T12:16:17;12.60;99.90
12015;DHT22;6066;48.138;16.402;2022-10-28T12:18:53;12.60;99.90
12015;DHT22;6066;48.138;16.402;2022-10-28T12:21:24;12.70;99.90
12015;DHT22;6066;48.138;16.402;2022-10-28T12:23:53;12.60;99.90
12015;DHT22;6066;48.138;16.402;2022-10-28T12:26:31;12.60;99.90
12015;DHT22;6066;48.138;16.402;2022-10-28T12:28:59;12.60;99.90
12015;DHT22;6066;48.138;16.402;2022-10-28T12:31:27;12.60;99.90
12015;DHT22;6066;48.138;16.402;2022-10-28T12:33:57;12.60;99.90
12015;DHT22;6066;48.138;16.402;2022-10-28T12:36:26;12.70;99.90
12015;DHT22;6066;48.138;16.402;2022-10-28T12:38:56;12.70;99.90
12015;DHT22;6066;48.138;16.402;2022-10-28T12:41:25;12.70;99.90
12015;DHT22;6066;48.138;16.402;2022-10-28T12:43:53;12.70;99.90
12015;DHT22;6066;48.138;16.402;2022-10-28T12:46:22;12.70;99.90
12015;DHT22;6066;48.138;16.402;2022-10-28T12:48:52;12.70;99.90
12015;DHT22;6066;48.138;16.402;2022-10-28T12:51:22;12.70;99.90
12015;DHT22;6066;48.138;16.402;2022-10-28T12:53:52;12.70;99.90
12015;DHT22;6066;48.138;16.402;2022-10-28T12:56:21;12.70;99.90
12015;DHT22;6066;48.138;16.402;2022-10-28T12:58:50;12.70;99.90
12015;DHT22;6066;48.138;16.402;2022-10-28T13:01:18;12.70;99.90
12015;DHT22;6066;48.138;16.402;2022-10-28T13:03:47;12.70;99.90
12015;DHT22;6066;48.138;16.402;2022-10-28T13:06:27;12.60;99.90
12015;DHT22;6066;48.138;16.402;2022-10-28T13:14:42;12.60;99.90
12015;DHT22;6066;48.138;16.402;2022-10-28T13:17:19;12.60;99.90
12015;DHT22;6066;48.138;16.402;2022-10-28T13:19:52;12.60;99.90
12015;DHT22;6066;48.138;16.402;2022-10-28T13:25:12;12.60;99.90
12015;DHT22;6066;48.138;16.402;2022-10-28T13:27:42;12.50;99.90
12015;DHT22;6066;48.138;16.402;2022-10-28T13:30:13;12.50;99.90
12015;DHT22;6066;48.138;16.402;2022-10-28T13:32:41;12.50;99.90
12015;DHT22;6066;48.138;16.402;2022-10-28T13:35:09;12.50;99.90
12015;DHT22;6066;48.138;16.402;2022-10-28T13:37:37;12.50;99.90
12015;DHT22;6066;48.138;16.402;2022-10-28T13:40:05;12.40;99.90
12015;DHT22;6066;48.138;16.402;2022-10-28T13:50:50;12.40;99.90
12015;DHT22;6066;48.138;16.402;2022-10-28T13:53:37;12.40;99.90
12015;DHT22;6066;48.138;16.402;2022-10-28T13:56:10;12.40;99.90
12015;DHT22;6066;48.138;16.402;2022-10-28T13:58:37;12.40;99.90
12015;DHT22;6066;48.138;16.402;2022-10-28T14:03:48;12.40;99.90
12015;DHT22;6066;48.138;16.402;2022-10-28T14:06:21;12.40;99.90
12015;DHT22;6066;48.138;16.402;2022-10-28T14:08:55;12.40;99.90
12015;DHT22;6066;48.138;16.402;2022-10-28T14:11:22;12.40;99.90
12015;DHT22;6066;48.138;16.402;2022-10-28T14:13:53;12.40;99.90
12015;DHT22;6066;48.138;16.402;2022-10-28T14:16:21;12.30;99.90
12015;DHT22;6066;48.138;16.402;2022-10-28T14:18:56;12.40;99.90
12015;DHT22;6066;48.138;16.402;2022-10-28T14:21:25;12.30;99.90
12015;DHT22;6066;48.138;16.402;2022-10-28T14:24:06;12.30;99.90
12015;DHT22;6066;48.138;16.402;2022-10-28T14:29:22;12.30;99.90
12015;DHT22;6066;48.138;16.402;2022-10-28T14:31:49;12.20;99.90
12015;DHT22;6066;48.138;16.402;2022-10-28T14:34:24;12.20;99.90
12015;DHT22;6066;48.138;16.402;2022-10-28T14:36:57;12.20;99.90
12015;DHT22;6066;48.138;16.402;2022-10-28T14:39:33;12.20;99.90
12015;DHT22;6066;48.138;16.402;2022-10-28T14:42:14;12.20;99.90
12015;DHT22;6066;48.138;16.402;2022-10-28T14:44:55;12.20;99.90
12015;DHT22;6066;48.138;16.402;2022-10-28T14:47:35;12.20;99.90
12015;DHT22;6066;48.138;16.402;2022-10-28T14:50:13;12.20;99.90
12015;DHT22;6066;48.138;16.402;2022-10-28T14:52:44;12.20;99.90
12015;DHT22;6066;48.138;16.402;2022-10-28T14:55:18;12.20;99.90
12015;DHT22;6066;48.138;16.402;2022-10-28T14:57:46;12.20;99.90
12015;DHT22;6066;48.138;16.402;2022-10-28T15:00:15;12.20;99.90
12015;DHT22;6066;48.138;16.402;2022-10-28T15:02:44;12.20;99.90
12015;DHT22;6066;48.138;16.402;2022-10-28T15:05:15;12.20;99.90
12015;DHT22;6066;48.138;16.402;2022-10-28T15:07:46;12.20;99.90
12015;DHT22;6066;48.138;16.402;2022-10-28T15:10:14;12.10;99.90
12015;DHT22;6066;48.138;16.402;2022-10-28T15:12:43;12.10;99.90
12015;DHT22;6066;48.138;16.402;2022-10-28T15:15:14;12.10;99.90
12015;DHT22;6066;48.138;16.402;2022-10-28T15:17:44;12.10;99.90
12015;DHT22;6066;48.138;16.402;2022-10-28T15:20:19;12.10;99.90
12015;DHT22;6066;48.138;16.402;2022-10-28T15:22:51;12.10;99.90
12015;DHT22;6066;48.138;16.402;2022-10-28T15:25:21;12.00;99.90
12015;DHT22;6066;48.138;16.402;2022-10-28T15:27:49;12.00;99.90
12015;DHT22;6066;48.138;16.402;2022-10-28T15:30:18;12.00;99.90
12015;DHT22;6066;48.138;16.402;2022-10-28T15:32:48;12.00;99.90
12015;DHT22;6066;48.138;16.402;2022-10-28T15:35:40;12.00;99.90
12015;DHT22;6066;48.138;16.402;2022-10-28T15:40:59;12.00;99.90
12015;DHT22;6066;48.138;16.402;2022-10-28T15:43:27;12.00;99.90
12015;DHT22;6066;48.138;16.402;2022-10-28T15:46:06;12.00;99.90
12015;DHT22;6066;48.138;16.402;2022-10-28T15:48:36;12.10;99.90
12015;DHT22;6066;48.138;16.402;2022-10-28T15:51:11;12.00;99.90
12015;DHT22;6066;48.138;16.402;2022-10-28T15:53:39;12.10;99.90
12015;DHT22;6066;48.138;16.402;2022-10-28T16:01:38;12.10;99.90
12015;DHT22;6066;48.138;16.402;2022-10-28T16:04:05;12.10;99.90
12015;DHT22;6066;48.138;16.402;2022-10-28T16:06:32;12.10;99.90
12015;DHT22;6066;48.138;16.402;2022-10-28T16:09:00;12.10;99.90
12015;DHT22;6066;48.138;16.402;2022-10-28T16:11:27;12.10;99.90
12015;DHT22;6066;48.138;16.402;2022-10-28T16:13:55;12.10;99.90
12015;DHT22;6066;48.138;16.402;2022-10-28T16:16:23;12.10;99.90
12015;DHT22;6066;48.138;16.402;2022-10-28T16:18:54;12.10;99.90